sensor_id;sensor_type;location;lat;lon;timestamp;P1;durP1;ratioP1;P2;durP2;ratioP2
5795;SDS011;2924;51.458;7.046;2023-11-21T00:02:06;20.23;;;12.03;;
5795;SDS011;2924;51.458;7.046;2023-11-21T00:04:31;24.33;;;12.20;;
5795;SDS011;2924;51.458;7.046;2023-11-21T00:06:57;15.70;;;9.53;;
5795;SDS011;2924;51.458;7.046;2023-11-21T00:09:23;22.50;;;10.60;;
5795;SDS011;2924;51.458;7.046;2023-11-21T00:11:48;24.17;;;11.67;;
5795;SDS011;2924;51.458;7.046;2023-11-21T00:14:14;19.93;;;10.83;;
5795;SDS011;2924;51.458;7.046;2023-11-21T00:16:42;15.23;;;9.47;;
5795;SDS011;2924;51.458;7.046;2023-11-21T00:19:08;26.97;;;10.80;;
5795;SDS011;2924;51.458;7.046;2023-11-21T00:21:34;19.73;;;12.20;;
5795;SDS011;2924;51.458;7.046;2023-11-21T00:23:59;16.53;;;10.07;;
5795;SDS011;2924;51.458;7.046;2023-11-21T00:26:25;17.07;;;9.60;;
5795;SDS011;2924;51.458;7.046;2023-11-21T00:28:50;25.50;;;9.07;;
5795;SDS011;2924;51.458;7.046;2023-11-21T00:31:16;22.73;;;10.83;;
5795;SDS011;2924;51.458;7.046;2023-11-21T00:33:41;15.03;;;8.83;;
5795;SDS011;2924;51.458;7.046;2023-11-21T00:36:08;22.73;;;10.87;;
5795;SDS011;2924;51.458;7.046;2023-11-21T00:38:37;24.50;;;10.47;;
5795;SDS011;2924;51.458;7.046;2023-11-21T00:41:04;22.13;;;11.23;;
5795;SDS011;2924;51.458;7.046;2023-11-21T00:43:31;20.10;;;10.70;;
5795;SDS011;2924;51.458;7.046;2023-11-21T00:45:58;38.27;;;12.53;;
5795;SDS011;2924;51.458;7.046;2023-11-21T00:48:23;17.43;;;9.77;;
5795;SDS011;2924;51.458;7.046;2023-11-21T00:50:49;21.17;;;10.33;;
5795;SDS011;2924;51.458;7.046;2023-11-21T00:53:15;23.23;;;10.63;;
5795;SDS011;2924;51.458;7.046;2023-11-21T00:55:40;32.17;;;12.73;;
5795;SDS011;2924;51.458;7.046;2023-11-21T00:58:06;32.60;;;11.97;;
5795;SDS011;2924;51.458;7.046;2023-11-21T01:00:32;24.93;;;12.87;;
5795;SDS011;2924;51.458;7.046;2023-11-21T01:02:59;29.50;;;12.17;;
5795;SDS011;2924;51.458;7.046;2023-11-21T01:05:24;20.60;;;10.60;;
5795;SDS011;2924;51.458;7.046;2023-11-21T01:07:50;21.63;;;12.00;;
5795;SDS011;2924;51.458;7.046;2023-11-21T01:10:16;30.23;;;13.20;;
5795;SDS011;2924;51.458;7.046;2023-11-21T01:12:42;31.20;;;12.33;;
5795;SDS011;2924;51.458;7.046;2023-11-21T01:15:08;31.43;;;12.63;;
5795;SDS011;2924;51.458;7.046;2023-11-21T01:17:34;24.23;;;12.17;;
5795;SDS011;2924;51.458;7.046;2023-11-21T01:20:00;31.03;;;13.27;;
5795;SDS011;2924;51.458;7.046;2023-11-21T01:22:26;21.80;;;11.83;;
5795;SDS011;2924;51.458;7.046;2023-11-21T01:24:53;29.67;;;12.80;;
5795;SDS011;2924;51.458;7.046;2023-11-21T01:27:18;31.03;;;13.73;;
5795;SDS011;2924;51.458;7.046;2023-11-21T01:29:44;29.20;;;11.37;;
5795;SDS011;2924;51.458;7.046;2023-11-21T01:32:10;44.33;;;15.47;;
5795;SDS011;2924;51.458;7.046;2023-11-21T01:34:36;31.77;;;12.97;;
5795;SDS011;2924;51.458;7.046;2023-11-21T01:37:02;28.00;;;12.70;;
5795;SDS011;2924;51.458;7.046;2023-11-21T01:39:29;40.73;;;13.03;;
5795;SDS011;2924;51.458;7.046;2023-11-21T01:41:55;30.43;;;14.03;;
5795;SDS011;2924;51.458;7.046;2023-11-21T01:44:23;32.93;;;13.20;;
5795;SDS011;2924;51.458;7.046;2023-11-21T01:46:49;25.27;;;11.30;;
5795;SDS011;2924;51.458;7.046;2023-11-21T01:49:15;23.77;;;11.50;;
5795;SDS011;2924;51.458;7.046;2023-11-21T01:51:43;25.47;;;12.67;;
5795;SDS011;2924;51.458;7.046;2023-11-21T01:54:11;30.83;;;11.80;;
5795;SDS011;2924;51.458;7.046;2023-11-21T01:56:37;29.17;;;12.17;;
5795;SDS011;2924;51.458;7.046;2023-11-21T01:59:04;21.90;;;11.50;;
5795;SDS011;2924;51.458;7.046;2023-11-21T02:01:30;22.77;;;11.37;;
5795;SDS011;2924;51.458;7.046;2023-11-21T02:03:56;19.73;;;11.50;;
5795;SDS011;2924;51.458;7.046;2023-11-21T02:06:22;24.10;;;11.20;;
5795;SDS011;2924;51.458;7.046;2023-11-21T02:08:49;20.37;;;11.23;;
5795;SDS011;2924;51.458;7.046;2023-11-21T02:11:15;29.80;;;11.00;;
5795;SDS011;2924;51.458;7.046;2023-11-21T02:13:41;27.33;;;12.23;;
5795;SDS011;2924;51.458;7.046;2023-11-21T02:16:10;28.27;;;12.60;;
5795;SDS011;2924;51.458;7.046;2023-11-21T02:18:37;46.80;;;13.47;;
5795;SDS011;2924;51.458;7.046;2023-11-21T02:21:04;32.67;;;13.00;;
5795;SDS011;2924;51.458;7.046;2023-11-21T02:23:30;25.50;;;12.10;;
5795;SDS011;2924;51.458;7.046;2023-11-21T02:25:56;19.80;;;11.33;;
5795;SDS011;2924;51.458;7.046;2023-11-21T02:28:21;18.43;;;9.90;;
5795;SDS011;2924;51.458;7.046;2023-11-21T02:30:51;20.87;;;10.00;;
5795;SDS011;2924;51.458;7.046;2023-11-21T02:33:21;27.80;;;12.23;;
5795;SDS011;2924;51.458;7.046;2023-11-21T02:35:47;25.10;;;10.87;;
5795;SDS011;2924;51.458;7.046;2023-11-21T02:38:13;21.83;;;10.63;;
5795;SDS011;2924;51.458;7.046;2023-11-21T02:40:39;33.73;;;13.07;;
5795;SDS011;2924;51.458;7.046;2023-11-21T02:43:04;23.30;;;10.50;;
5795;SDS011;2924;51.458;7.046;2023-11-21T02:45:31;25.33;;;13.47;;
5795;SDS011;2924;51.458;7.046;2023-11-21T02:47:57;25.83;;;11.07;;
5795;SDS011;2924;51.458;7.046;2023-11-21T02:50:23;22.10;;;11.67;;
5795;SDS011;2924;51.458;7.046;2023-11-21T02:52:49;27.43;;;11.70;;
5795;SDS011;2924;51.458;7.046;2023-11-21T02:55:14;41.00;;;12.93;;
5795;SDS011;2924;51.458;7.046;2023-11-21T02:57:40;26.53;;;11.80;;
5795;SDS011;2924;51.458;7.046;2023-11-21T03:00:06;25.30;;;12.90;;
5795;SDS011;2924;51.458;7.046;2023-11-21T03:02:32;27.27;;;12.77;;
5795;SDS011;2924;51.458;7.046;2023-11-21T03:05:01;40.17;;;14.67;;
5795;SDS011;2924;51.458;7.046;2023-11-21T03:07:27;25.77;;;13.13;;
5795;SDS011;2924;51.458;7.046;2023-11-21T03:09:52;37.93;;;14.30;;
5795;SDS011;2924;51.458;7.046;2023-11-21T03:12:18;35.00;;;13.73;;
5795;SDS011;2924;51.458;7.046;2023-11-21T03:14:44;35.93;;;15.27;;
5795;SDS011;2924;51.458;7.046;2023-11-21T03:17:10;34.20;;;13.47;;
5795;SDS011;2924;51.458;7.046;2023-11-21T03:19:36;28.00;;;13.50;;
5795;SDS011;2924;51.458;7.046;2023-11-21T03:22:02;34.80;;;13.60;;
5795;SDS011;2924;51.458;7.046;2023-11-21T03:24:29;35.80;;;14.33;;
5795;SDS011;2924;51.458;7.046;2023-11-21T03:26:55;35.70;;;15.43;;
5795;SDS011;2924;51.458;7.046;2023-11-21T03:29:21;35.63;;;13.50;;
5795;SDS011;2924;51.458;7.046;2023-11-21T03:31:46;39.40;;;14.00;;
5795;SDS011;2924;51.458;7.046;2023-11-21T03:34:25;28.20;;;12.50;;
5795;SDS011;2924;51.458;7.046;2023-11-21T03:36:52;24.93;;;12.57;;
5795;SDS011;2924;51.458;7.046;2023-11-21T03:39:18;28.30;;;12.80;;
5795;SDS011;2924;51.458;7.046;2023-11-21T03:41:47;27.33;;;11.60;;
5795;SDS011;2924;51.458;7.046;2023-11-21T03:44:13;28.10;;;12.47;;
5795;SDS011;2924;51.458;7.046;2023-11-21T03:46:39;32.27;;;12.43;;
5795;SDS011;2924;51.458;7.046;2023-11-21T03:49:04;36.83;;;15.13;;
5795;SDS011;2924;51.458;7.046;2023-11-21T03:51:30;28.90;;;13.57;;
5795;SDS011;2924;51.458;7.046;2023-11-21T03:53:55;30.63;;;13.10;;
5795;SDS011;2924;51.458;7.046;2023-11-21T03:56:21;24.40;;;11.43;;
5795;SDS011;2924;51.458;7.046;2023-11-21T03:58:47;29.57;;;13.33;;
5795;SDS011;2924;51.458;7.046;2023-11-21T04:01:23;40.83;;;12.93;;
5795;SDS011;2924;51.458;7.046;2023-11-21T04:03:50;28.77;;;13.23;;
5795;SDS011;2924;51.458;7.046;2023-11-21T04:06:16;48.37;;;16.37;;
5795;SDS011;2924;51.458;7.046;2023-11-21T04:08:45;28.27;;;13.40;;
5795;SDS011;2924;51.458;7.046;2023-11-21T04:11:11;36.40;;;12.93;;
5795;SDS011;2924;51.458;7.046;2023-11-21T04:13:38;34.27;;;13.40;;
5795;SDS011;2924;51.458;7.046;2023-11-21T04:16:07;27.03;;;12.27;;
5795;SDS011;2924;51.458;7.046;2023-11-21T04:18:36;32.30;;;14.10;;
5795;SDS011;2924;51.458;7.046;2023-11-21T04:21:02;25.07;;;13.17;;
5795;SDS011;2924;51.458;7.046;2023-11-21T04:23:29;26.37;;;12.90;;
5795;SDS011;2924;51.458;7.046;2023-11-21T04:25:56;27.03;;;12.60;;
5795;SDS011;2924;51.458;7.046;2023-11-21T04:28:22;28.67;;;13.90;;
5795;SDS011;2924;51.458;7.046;2023-11-21T04:30:49;31.33;;;13.00;;
5795;SDS011;2924;51.458;7.046;2023-11-21T04:33:15;33.77;;;12.97;;
5795;SDS011;2924;51.458;7.046;2023-11-21T04:35:41;29.93;;;13.33;;
5795;SDS011;2924;51.458;7.046;2023-11-21T04:38:07;29.83;;;12.70;;
5795;SDS011;2924;51.458;7.046;2023-11-21T04:40:32;25.53;;;13.00;;
5795;SDS011;2924;51.458;7.046;2023-11-21T04:42:58;27.27;;;13.53;;
5795;SDS011;2924;51.458;7.046;2023-11-21T04:45:24;29.47;;;13.37;;
5795;SDS011;2924;51.458;7.046;2023-11-21T04:47:49;28.50;;;12.90;;
5795;SDS011;2924;51.458;7.046;2023-11-21T04:50:15;29.50;;;15.07;;
5795;SDS011;2924;51.458;7.046;2023-11-21T04:52:42;27.97;;;13.73;;
5795;SDS011;2924;51.458;7.046;2023-11-21T04:55:07;36.80;;;15.93;;
5795;SDS011;2924;51.458;7.046;2023-11-21T04:57:35;37.13;;;17.20;;
5795;SDS011;2924;51.458;7.046;2023-11-21T05:00:01;42.03;;;17.97;;
5795;SDS011;2924;51.458;7.046;2023-11-21T05:02:30;27.30;;;13.67;;
5795;SDS011;2924;51.458;7.046;2023-11-21T05:04:56;37.27;;;14.83;;
5795;SDS011;2924;51.458;7.046;2023-11-21T05:07:22;33.20;;;12.87;;
5795;SDS011;2924;51.458;7.046;2023-11-21T05:09:47;26.30;;;13.77;;
5795;SDS011;2924;51.458;7.046;2023-11-21T05:12:13;26.07;;;12.97;;
5795;SDS011;2924;51.458;7.046;2023-11-21T05:14:39;28.87;;;13.57;;
5795;SDS011;2924;51.458;7.046;2023-11-21T05:17:05;39.00;;;15.47;;
5795;SDS011;2924;51.458;7.046;2023-11-21T05:19:32;36.67;;;15.50;;
5795;SDS011;2924;51.458;7.046;2023-11-21T05:21:59;29.67;;;12.80;;
5795;SDS011;2924;51.458;7.046;2023-11-21T05:24:25;39.83;;;16.37;;
5795;SDS011;2924;51.458;7.046;2023-11-21T05:26:51;48.90;;;17.57;;
5795;SDS011;2924;51.458;7.046;2023-11-21T05:29:17;39.77;;;19.00;;
5795;SDS011;2924;51.458;7.046;2023-11-21T05:31:43;46.70;;;20.13;;
5795;SDS011;2924;51.458;7.046;2023-11-21T05:34:09;57.03;;;19.03;;
5795;SDS011;2924;51.458;7.046;2023-11-21T05:36:34;54.23;;;18.80;;
5795;SDS011;2924;51.458;7.046;2023-11-21T05:39:00;47.47;;;18.80;;
5795;SDS011;2924;51.458;7.046;2023-11-21T05:41:25;44.93;;;20.17;;
5795;SDS011;2924;51.458;7.046;2023-11-21T05:43:51;49.73;;;18.80;;
5795;SDS011;2924;51.458;7.046;2023-11-21T05:46:19;34.73;;;17.90;;
5795;SDS011;2924;51.458;7.046;2023-11-21T05:48:44;46.93;;;18.57;;
5795;SDS011;2924;51.458;7.046;2023-11-21T05:51:11;44.93;;;18.07;;
5795;SDS011;2924;51.458;7.046;2023-11-21T05:53:38;39.97;;;17.70;;
5795;SDS011;2924;51.458;7.046;2023-11-21T05:56:04;47.73;;;20.10;;
5795;SDS011;2924;51.458;7.046;2023-11-21T05:58:30;43.70;;;18.20;;
5795;SDS011;2924;51.458;7.046;2023-11-21T06:00:56;40.80;;;18.07;;
5795;SDS011;2924;51.458;7.046;2023-11-21T06:03:22;37.83;;;17.97;;
5795;SDS011;2924;51.458;7.046;2023-11-21T06:05:48;42.73;;;19.67;;
5795;SDS011;2924;51.458;7.046;2023-11-21T06:08:13;39.50;;;18.50;;
5795;SDS011;2924;51.458;7.046;2023-11-21T06:10:42;45.50;;;18.70;;
5795;SDS011;2924;51.458;7.046;2023-11-21T06:13:08;62.93;;;23.00;;
5795;SDS011;2924;51.458;7.046;2023-11-21T06:15:35;54.77;;;22.27;;
5795;SDS011;2924;51.458;7.046;2023-11-21T06:18:01;53.83;;;20.57;;
5795;SDS011;2924;51.458;7.046;2023-11-21T06:20:27;68.70;;;24.17;;
5795;SDS011;2924;51.458;7.046;2023-11-21T06:22:52;52.47;;;21.00;;
5795;SDS011;2924;51.458;7.046;2023-11-21T06:25:18;61.60;;;22.80;;
5795;SDS011;2924;51.458;7.046;2023-11-21T06:27:45;50.43;;;20.90;;
5795;SDS011;2924;51.458;7.046;2023-11-21T06:30:15;69.73;;;25.27;;
5795;SDS011;2924;51.458;7.046;2023-11-21T06:32:41;65.87;;;23.93;;
5795;SDS011;2924;51.458;7.046;2023-11-21T06:35:10;66.50;;;24.50;;
5795;SDS011;2924;51.458;7.046;2023-11-21T06:37:36;60.63;;;23.27;;
5795;SDS011;2924;51.458;7.046;2023-11-21T06:40:02;62.47;;;25.00;;
5795;SDS011;2924;51.458;7.046;2023-11-21T06:42:31;68.70;;;23.57;;
5795;SDS011;2924;51.458;7.046;2023-11-21T06:44:58;63.40;;;24.40;;
5795;SDS011;2924;51.458;7.046;2023-11-21T06:47:24;61.03;;;25.20;;
5795;SDS011;2924;51.458;7.046;2023-11-21T06:49:51;62.37;;;24.23;;
5795;SDS011;2924;51.458;7.046;2023-11-21T06:52:18;52.00;;;19.97;;
5795;SDS011;2924;51.458;7.046;2023-11-21T06:54:44;43.57;;;19.00;;
5795;SDS011;2924;51.458;7.046;2023-11-21T06:57:10;40.73;;;19.03;;
5795;SDS011;2924;51.458;7.046;2023-11-21T06:59:36;55.73;;;21.27;;
5795;SDS011;2924;51.458;7.046;2023-11-21T07:02:02;43.90;;;19.50;;
5795;SDS011;2924;51.458;7.046;2023-11-21T07:04:28;48.27;;;19.03;;
5795;SDS011;2924;51.458;7.046;2023-11-21T07:06:53;42.50;;;19.70;;
5795;SDS011;2924;51.458;7.046;2023-11-21T07:09:19;55.37;;;19.37;;
5795;SDS011;2924;51.458;7.046;2023-11-21T07:11:48;47.00;;;20.97;;
5795;SDS011;2924;51.458;7.046;2023-11-21T07:14:14;37.17;;;17.50;;
5795;SDS011;2924;51.458;7.046;2023-11-21T07:16:41;41.10;;;18.07;;
5795;SDS011;2924;51.458;7.046;2023-11-21T07:19:07;40.70;;;17.67;;
5795;SDS011;2924;51.458;7.046;2023-11-21T07:21:33;45.17;;;18.13;;
5795;SDS011;2924;51.458;7.046;2023-11-21T07:23:59;38.43;;;16.70;;
5795;SDS011;2924;51.458;7.046;2023-11-21T07:26:29;43.97;;;19.37;;
5795;SDS011;2924;51.458;7.046;2023-11-21T07:28:55;37.07;;;17.30;;
5795;SDS011;2924;51.458;7.046;2023-11-21T07:31:21;44.10;;;18.47;;
5795;SDS011;2924;51.458;7.046;2023-11-21T07:33:47;45.80;;;18.83;;
5795;SDS011;2924;51.458;7.046;2023-11-21T07:36:13;56.30;;;23.37;;
5795;SDS011;2924;51.458;7.046;2023-11-21T07:38:39;95.87;;;29.07;;
5795;SDS011;2924;51.458;7.046;2023-11-21T07:41:05;87.00;;;27.17;;
5795;SDS011;2924;51.458;7.046;2023-11-21T07:43:33;85.47;;;29.73;;
5795;SDS011;2924;51.458;7.046;2023-11-21T07:46:02;77.60;;;27.40;;
5795;SDS011;2924;51.458;7.046;2023-11-21T07:48:29;86.00;;;30.17;;
5795;SDS011;2924;51.458;7.046;2023-11-21T07:50:55;86.07;;;28.53;;
5795;SDS011;2924;51.458;7.046;2023-11-21T07:53:20;90.87;;;31.77;;
5795;SDS011;2924;51.458;7.046;2023-11-21T07:55:47;93.43;;;29.83;;
5795;SDS011;2924;51.458;7.046;2023-11-21T07:58:12;90.70;;;31.03;;
5795;SDS011;2924;51.458;7.046;2023-11-21T08:00:38;92.07;;;29.23;;
5795;SDS011;2924;51.458;7.046;2023-11-21T08:03:04;89.37;;;29.07;;
5795;SDS011;2924;51.458;7.046;2023-11-21T08:05:30;82.10;;;26.50;;
5795;SDS011;2924;51.458;7.046;2023-11-21T08:07:56;89.10;;;29.87;;
5795;SDS011;2924;51.458;7.046;2023-11-21T08:10:22;74.67;;;28.43;;
5795;SDS011;2924;51.458;7.046;2023-11-21T08:12:48;91.10;;;31.07;;
5795;SDS011;2924;51.458;7.046;2023-11-21T08:15:15;84.83;;;29.97;;
5795;SDS011;2924;51.458;7.046;2023-11-21T08:17:41;97.43;;;33.63;;
5795;SDS011;2924;51.458;7.046;2023-11-21T08:20:06;113.30;;;34.00;;
5795;SDS011;2924;51.458;7.046;2023-11-21T08:22:33;87.87;;;33.47;;
5795;SDS011;2924;51.458;7.046;2023-11-21T08:24:59;109.13;;;35.70;;
5795;SDS011;2924;51.458;7.046;2023-11-21T08:27:25;88.67;;;32.10;;
5795;SDS011;2924;51.458;7.046;2023-11-21T08:29:50;104.80;;;36.40;;
5795;SDS011;2924;51.458;7.046;2023-11-21T08:32:17;116.23;;;39.03;;
5795;SDS011;2924;51.458;7.046;2023-11-21T08:34:43;107.87;;;36.87;;
5795;SDS011;2924;51.458;7.046;2023-11-21T08:37:09;130.00;;;39.70;;
5795;SDS011;2924;51.458;7.046;2023-11-21T08:39:36;123.87;;;41.43;;
5795;SDS011;2924;51.458;7.046;2023-11-21T08:42:03;115.27;;;40.83;;
5795;SDS011;2924;51.458;7.046;2023-11-21T08:44:29;138.43;;;43.67;;
5795;SDS011;2924;51.458;7.046;2023-11-21T08:46:55;141.27;;;43.30;;
5795;SDS011;2924;51.458;7.046;2023-11-21T08:49:21;119.47;;;39.43;;
5795;SDS011;2924;51.458;7.046;2023-11-21T08:51:46;144.10;;;43.03;;
5795;SDS011;2924;51.458;7.046;2023-11-21T08:54:12;127.00;;;39.43;;
5795;SDS011;2924;51.458;7.046;2023-11-21T08:56:37;139.53;;;42.27;;
5795;SDS011;2924;51.458;7.046;2023-11-21T08:59:03;134.73;;;42.57;;
5795;SDS011;2924;51.458;7.046;2023-11-21T09:01:29;130.50;;;42.40;;
5795;SDS011;2924;51.458;7.046;2023-11-21T09:03:56;118.40;;;39.37;;
5795;SDS011;2924;51.458;7.046;2023-11-21T09:06:23;132.43;;;44.43;;
5795;SDS011;2924;51.458;7.046;2023-11-21T09:08:49;126.57;;;40.30;;
5795;SDS011;2924;51.458;7.046;2023-11-21T09:11:15;119.80;;;38.97;;
5795;SDS011;2924;51.458;7.046;2023-11-21T09:13:40;101.00;;;35.67;;
5795;SDS011;2924;51.458;7.046;2023-11-21T09:16:06;132.03;;;41.70;;
5795;SDS011;2924;51.458;7.046;2023-11-21T09:18:32;107.20;;;37.33;;
5795;SDS011;2924;51.458;7.046;2023-11-21T09:20:57;126.73;;;42.17;;
5795;SDS011;2924;51.458;7.046;2023-11-21T09:23:24;147.80;;;42.07;;
5795;SDS011;2924;51.458;7.046;2023-11-21T09:25:49;146.73;;;43.30;;
5795;SDS011;2924;51.458;7.046;2023-11-21T09:28:16;135.67;;;43.90;;
5795;SDS011;2924;51.458;7.046;2023-11-21T09:30:42;121.83;;;40.10;;
5795;SDS011;2924;51.458;7.046;2023-11-21T09:33:08;128.27;;;40.80;;
5795;SDS011;2924;51.458;7.046;2023-11-21T09:35:37;133.33;;;45.40;;
5795;SDS011;2924;51.458;7.046;2023-11-21T09:38:03;103.70;;;37.00;;
5795;SDS011;2924;51.458;7.046;2023-11-21T09:40:35;103.77;;;34.83;;
5795;SDS011;2924;51.458;7.046;2023-11-21T09:43:02;104.80;;;38.20;;
5795;SDS011;2924;51.458;7.046;2023-11-21T09:45:35;117.87;;;36.77;;
5795;SDS011;2924;51.458;7.046;2023-11-21T09:48:03;99.10;;;33.00;;
5795;SDS011;2924;51.458;7.046;2023-11-21T09:50:31;105.77;;;37.27;;
5795;SDS011;2924;51.458;7.046;2023-11-21T09:53:31;96.20;;;34.03;;
5795;SDS011;2924;51.458;7.046;2023-11-21T09:55:52;101.17;;;35.80;;
5795;SDS011;2924;51.458;7.046;2023-11-21T09:58:19;107.33;;;36.70;;
5795;SDS011;2924;51.458;7.046;2023-11-21T10:00:47;99.20;;;36.40;;
5795;SDS011;2924;51.458;7.046;2023-11-21T10:03:14;115.10;;;37.43;;
5795;SDS011;2924;51.458;7.046;2023-11-21T10:05:42;118.27;;;40.07;;
5795;SDS011;2924;51.458;7.046;2023-11-21T10:08:09;104.47;;;36.87;;
5795;SDS011;2924;51.458;7.046;2023-11-21T10:10:36;118.93;;;40.97;;
5795;SDS011;2924;51.458;7.046;2023-11-21T10:13:04;93.37;;;36.93;;
5795;SDS011;2924;51.458;7.046;2023-11-21T10:15:35;104.30;;;38.77;;
5795;SDS011;2924;51.458;7.046;2023-11-21T10:18:02;123.77;;;40.43;;
5795;SDS011;2924;51.458;7.046;2023-11-21T10:20:28;94.03;;;36.97;;
5795;SDS011;2924;51.458;7.046;2023-11-21T10:22:55;112.70;;;36.23;;
5795;SDS011;2924;51.458;7.046;2023-11-21T10:25:21;103.97;;;36.63;;
5795;SDS011;2924;51.458;7.046;2023-11-21T10:27:48;99.63;;;36.63;;
5795;SDS011;2924;51.458;7.046;2023-11-21T10:30:17;97.40;;;33.67;;
5795;SDS011;2924;51.458;7.046;2023-11-21T10:32:43;90.10;;;33.97;;
5795;SDS011;2924;51.458;7.046;2023-11-21T10:35:09;120.20;;;40.20;;
5795;SDS011;2924;51.458;7.046;2023-11-21T10:37:39;97.07;;;36.13;;
5795;SDS011;2924;51.458;7.046;2023-11-21T10:40:08;99.33;;;36.20;;
5795;SDS011;2924;51.458;7.046;2023-11-21T10:42:37;75.40;;;30.80;;
5795;SDS011;2924;51.458;7.046;2023-11-21T10:45:03;85.60;;;35.40;;
5795;SDS011;2924;51.458;7.046;2023-11-21T10:47:34;113.67;;;37.33;;
5795;SDS011;2924;51.458;7.046;2023-11-21T10:50:01;90.77;;;35.80;;
5795;SDS011;2924;51.458;7.046;2023-11-21T10:52:27;83.40;;;35.70;;
5795;SDS011;2924;51.458;7.046;2023-11-21T10:54:53;88.70;;;32.27;;
5795;SDS011;2924;51.458;7.046;2023-11-21T10:57:18;65.80;;;28.10;;
5795;SDS011;2924;51.458;7.046;2023-11-21T10:59:47;82.77;;;31.97;;
5795;SDS011;2924;51.458;7.046;2023-11-21T11:02:18;95.23;;;34.80;;
5795;SDS011;2924;51.458;7.046;2023-11-21T11:04:50;81.70;;;32.10;;
5795;SDS011;2924;51.458;7.046;2023-11-21T11:07:17;85.13;;;32.00;;
5795;SDS011;2924;51.458;7.046;2023-11-21T11:09:45;68.00;;;29.50;;
5795;SDS011;2924;51.458;7.046;2023-11-21T11:12:12;96.63;;;35.27;;
5795;SDS011;2924;51.458;7.046;2023-11-21T11:14:40;78.33;;;32.27;;
5795;SDS011;2924;51.458;7.046;2023-11-21T11:17:06;83.07;;;33.40;;
5795;SDS011;2924;51.458;7.046;2023-11-21T11:19:33;77.10;;;31.17;;
5795;SDS011;2924;51.458;7.046;2023-11-21T11:27:55;74.83;;;31.90;;
5795;SDS011;2924;51.458;7.046;2023-11-21T11:30:39;79.67;;;34.10;;
5795;SDS011;2924;51.458;7.046;2023-11-21T11:33:39;70.67;;;30.50;;
5795;SDS011;2924;51.458;7.046;2023-11-21T11:38:52;59.97;;;30.53;;
5795;SDS011;2924;51.458;7.046;2023-11-21T11:41:28;63.07;;;30.20;;
5795;SDS011;2924;51.458;7.046;2023-11-21T11:43:58;64.47;;;31.77;;
5795;SDS011;2924;51.458;7.046;2023-11-21T11:46:39;86.03;;;36.27;;
5795;SDS011;2924;51.458;7.046;2023-11-21T11:49:27;73.37;;;35.50;;
5795;SDS011;2924;51.458;7.046;2023-11-21T11:54:59;64.30;;;32.67;;
5795;SDS011;2924;51.458;7.046;2023-11-21T11:57:29;60.53;;;30.20;;
5795;SDS011;2924;51.458;7.046;2023-11-21T12:03:06;64.67;;;33.93;;
5795;SDS011;2924;51.458;7.046;2023-11-21T12:05:34;57.83;;;30.53;;
5795;SDS011;2924;51.458;7.046;2023-11-21T12:08:03;56.40;;;32.80;;
5795;SDS011;2924;51.458;7.046;2023-11-21T12:10:31;72.20;;;34.60;;
5795;SDS011;2924;51.458;7.046;2023-11-21T12:13:02;58.73;;;29.53;;
5795;SDS011;2924;51.458;7.046;2023-11-21T12:15:29;61.20;;;31.83;;
5795;SDS011;2924;51.458;7.046;2023-11-21T12:17:56;62.50;;;32.33;;
5795;SDS011;2924;51.458;7.046;2023-11-21T12:20:24;62.23;;;30.40;;
5795;SDS011;2924;51.458;7.046;2023-11-21T12:25:17;61.37;;;32.60;;
5795;SDS011;2924;51.458;7.046;2023-11-21T12:27:53;76.67;;;32.80;;
5795;SDS011;2924;51.458;7.046;2023-11-21T12:30:21;67.70;;;30.97;;
5795;SDS011;2924;51.458;7.046;2023-11-21T12:32:49;68.57;;;35.17;;
5795;SDS011;2924;51.458;7.046;2023-11-21T12:35:19;65.47;;;33.30;;
5795;SDS011;2924;51.458;7.046;2023-11-21T12:37:46;63.43;;;32.33;;
5795;SDS011;2924;51.458;7.046;2023-11-21T12:40:17;63.07;;;30.87;;
5795;SDS011;2924;51.458;7.046;2023-11-21T12:42:51;46.60;;;25.67;;
5795;SDS011;2924;51.458;7.046;2023-11-21T12:45:24;50.43;;;24.27;;
5795;SDS011;2924;51.458;7.046;2023-11-21T12:48:02;60.80;;;30.03;;
5795;SDS011;2924;51.458;7.046;2023-11-21T12:50:32;51.93;;;25.40;;
5795;SDS011;2924;51.458;7.046;2023-11-21T12:53:02;33.00;;;20.50;;
5795;SDS011;2924;51.458;7.046;2023-11-21T12:55:30;43.23;;;22.93;;
5795;SDS011;2924;51.458;7.046;2023-11-21T12:58:03;41.17;;;21.03;;
5795;SDS011;2924;51.458;7.046;2023-11-21T13:00:38;36.03;;;19.67;;
5795;SDS011;2924;51.458;7.046;2023-11-21T13:03:10;46.77;;;20.40;;
5795;SDS011;2924;51.458;7.046;2023-11-21T13:05:37;40.00;;;18.67;;
5795;SDS011;2924;51.458;7.046;2023-11-21T13:08:08;40.47;;;19.50;;
5795;SDS011;2924;51.458;7.046;2023-11-21T13:10:38;34.57;;;20.27;;
5795;SDS011;2924;51.458;7.046;2023-11-21T13:13:11;35.33;;;19.17;;
5795;SDS011;2924;51.458;7.046;2023-11-21T13:15:51;30.73;;;18.57;;
5795;SDS011;2924;51.458;7.046;2023-11-21T13:18:17;33.90;;;18.70;;
5795;SDS011;2924;51.458;7.046;2023-11-21T13:20:43;32.03;;;19.17;;
5795;SDS011;2924;51.458;7.046;2023-11-21T13:23:11;40.57;;;21.00;;
5795;SDS011;2924;51.458;7.046;2023-11-21T13:25:41;36.10;;;20.33;;
5795;SDS011;2924;51.458;7.046;2023-11-21T13:28:08;35.83;;;21.97;;
5795;SDS011;2924;51.458;7.046;2023-11-21T13:30:36;30.10;;;18.87;;
5795;SDS011;2924;51.458;7.046;2023-11-21T13:33:04;32.17;;;18.10;;
5795;SDS011;2924;51.458;7.046;2023-11-21T13:35:32;31.83;;;20.17;;
5795;SDS011;2924;51.458;7.046;2023-11-21T13:38:12;39.40;;;18.80;;
5795;SDS011;2924;51.458;7.046;2023-11-21T13:40:42;40.90;;;18.67;;
5795;SDS011;2924;51.458;7.046;2023-11-21T13:43:14;44.03;;;19.57;;
5795;SDS011;2924;51.458;7.046;2023-11-21T13:45:46;27.23;;;16.70;;
5795;SDS011;2924;51.458;7.046;2023-11-21T13:48:17;30.10;;;17.53;;
5795;SDS011;2924;51.458;7.046;2023-11-21T13:50:50;25.00;;;15.17;;
5795;SDS011;2924;51.458;7.046;2023-11-21T13:53:38;30.60;;;15.53;;
5795;SDS011;2924;51.458;7.046;2023-11-21T13:56:04;31.77;;;17.03;;
5795;SDS011;2924;51.458;7.046;2023-11-21T13:58:30;30.37;;;16.40;;
5795;SDS011;2924;51.458;7.046;2023-11-21T14:01:14;27.13;;;16.57;;
5795;SDS011;2924;51.458;7.046;2023-11-21T14:03:55;29.20;;;15.43;;
5795;SDS011;2924;51.458;7.046;2023-11-21T14:06:44;36.83;;;16.40;;
5795;SDS011;2924;51.458;7.046;2023-11-21T14:09:14;30.77;;;15.63;;
5795;SDS011;2924;51.458;7.046;2023-11-21T14:11:48;32.00;;;15.90;;
5795;SDS011;2924;51.458;7.046;2023-11-21T14:14:15;22.10;;;13.37;;
5795;SDS011;2924;51.458;7.046;2023-11-21T14:16:41;29.83;;;15.70;;
5795;SDS011;2924;51.458;7.046;2023-11-21T14:19:07;31.70;;;15.93;;
5795;SDS011;2924;51.458;7.046;2023-11-21T14:21:40;24.50;;;14.67;;
5795;SDS011;2924;51.458;7.046;2023-11-21T14:24:10;24.03;;;13.97;;
5795;SDS011;2924;51.458;7.046;2023-11-21T14:26:38;22.93;;;14.40;;
5795;SDS011;2924;51.458;7.046;2023-11-21T14:29:07;26.90;;;13.00;;
5795;SDS011;2924;51.458;7.046;2023-11-21T14:31:34;25.27;;;15.37;;
5795;SDS011;2924;51.458;7.046;2023-11-21T14:34:00;24.73;;;12.73;;
5795;SDS011;2924;51.458;7.046;2023-11-21T14:36:29;28.73;;;14.47;;
5795;SDS011;2924;51.458;7.046;2023-11-21T14:38:55;21.43;;;11.23;;
5795;SDS011;2924;51.458;7.046;2023-11-21T14:41:21;23.80;;;11.87;;
5795;SDS011;2924;51.458;7.046;2023-11-21T14:43:46;22.40;;;12.27;;
5795;SDS011;2924;51.458;7.046;2023-11-21T14:46:14;29.03;;;12.83;;
5795;SDS011;2924;51.458;7.046;2023-11-21T14:48:42;24.90;;;11.87;;
5795;SDS011;2924;51.458;7.046;2023-11-21T14:51:10;21.10;;;12.17;;
5795;SDS011;2924;51.458;7.046;2023-11-21T14:53:52;17.97;;;10.73;;
5795;SDS011;2924;51.458;7.046;2023-11-21T14:56:22;28.63;;;10.90;;
5795;SDS011;2924;51.458;7.046;2023-11-21T14:58:58;18.97;;;10.13;;
5795;SDS011;2924;51.458;7.046;2023-11-21T15:01:32;19.87;;;9.93;;
5795;SDS011;2924;51.458;7.046;2023-11-21T15:04:16;13.90;;;8.83;;
5795;SDS011;2924;51.458;7.046;2023-11-21T15:07:01;18.03;;;10.10;;